Time;durP1;ratioP1;P1;durP2;ratioP2;P2;SDS_P1;SDS_P2;PMS_P1;PMS_P2;Temp;Humidity;BMP_temperature;BMP_pressure;BME280_temperature;BME280_humidity;BME280_pressure;Samples;Min_cycle;Max_cycle;Signal;HPM_P1;HPM_P2
2023/01/31 00:02:08;;;;;;;8.37;3.40;;;;;;;;;;5029350;28;20189;-85
2023/01/31 00:04:34;;;;;;;10.37;3.20;;;;;;;;;;5036508;28;20178;-85
2023/01/31 00:07:00;;;;;;;9.53;3.37;;;;;;;;;;5039097;28;20178;-85
2023/01/31 00:09:26;;;;;;;10.87;3.80;;;;;;;;;;5033279;28;20201;-84
2023/01/31 00:11:52;;;;;;;10.37;3.83;;;;;;;;;;5029139;28;20184;-85
2023/01/31 00:14:19;;;;;;;10.20;3.07;;;;;;;;;;5026021;28;20219;-85
2023/01/31 00:16:45;;;;;;;13.73;4.13;;;;;;;;;;5026825;28;20231;-85
2023/01/31 00:19:11;;;;;;;11.33;4.40;;;;;;;;;;5035650;28;20177;-86
2023/01/31 00:21:42;;;;;;;8.50;3.80;;;;;;;;;;5031719;28;20201;-85
2023/01/31 00:24:08;;;;;;;10.60;3.27;;;;;;;;;;5032598;28;20169;-86
2023/01/31 00:26:35;;;;;;;13.37;3.87;;;;;;;;;;5030722;28;20166;-85
2023/01/31 00:29:02;;;;;;;8.20;3.20;;;;;;;;;;5031304;28;20288;-85
2023/01/31 00:31:29;;;;;;;12.53;3.60;;;;;;;;;;5024913;28;20174;-85
2023/01/31 00:33:56;;;;;;;10.43;3.93;;;;;;;;;;5027877;28;20169;-86
2023/01/31 00:36:24;;;;;;;7.77;3.17;;;;;;;;;;5024725;28;20716;-85
2023/01/31 00:38:51;;;;;;;9.60;3.20;;;;;;;;;;5031558;28;20606;-85
2023/01/31 00:41:17;;;;;;;5.27;2.53;;;;;;;;;;5029202;28;20185;-85
2023/01/31 00:43:43;;;;;;;9.53;3.63;;;;;;;;;;5030485;28;20209;-85
2023/01/31 00:46:28;;;;;;;9.43;3.43;;;;;;;;;;5028351;28;20186;-84
2023/01/31 00:48:55;;;;;;;8.50;3.63;;;;;;;;;;5026287;28;20249;-84
2023/01/31 00:51:21;;;;;;;5.27;3.53;;;;;;;;;;5035419;28;20227;-86
2023/01/31 00:53:49;;;;;;;8.93;3.27;;;;;;;;;;5040304;28;20699;-85
2023/01/31 00:56:18;;;;;;;12.17;3.73;;;;;;;;;;5029016;28;20196;-85
2023/01/31 00:58:44;;;;;;;12.17;4.47;;;;;;;;;;5032944;28;20170;-85
2023/01/31 01:01:18;;;;;;;14.80;4.50;;;;;;;;;;5017239;28;20841;-85
2023/01/31 01:03:45;;;;;;;12.73;3.57;;;;;;;;;;5029517;28;20178;-85
2023/01/31 01:06:11;;;;;;;7.93;3.07;;;;;;;;;;5028053;28;20191;-85
2023/01/31 01:08:38;;;;;;;8.77;3.57;;;;;;;;;;5023007;28;20232;-85
2023/01/31 01:11:08;;;;;;;5.27;2.83;;;;;;;;;;5037976;28;20186;-84
2023/01/31 01:13:35;;;;;;;9.30;3.13;;;;;;;;;;5021917;28;20174;-85
2023/01/31 01:16:27;;;;;;;9.93;3.63;;;;;;;;;;5030940;28;20712;-85
2023/01/31 01:18:54;;;;;;;11.90;3.90;;;;;;;;;;5028472;28;20672;-85
2023/01/31 01:21:27;;;;;;;7.27;3.10;;;;;;;;;;5028791;28;20178;-84
2023/01/31 01:23:56;;;;;;;9.93;3.63;;;;;;;;;;5038209;28;20204;-85
2023/01/31 01:26:24;;;;;;;7.00;3.77;;;;;;;;;;5032388;28;20186;-85
2023/01/31 01:28:50;;;;;;;8.97;3.50;;;;;;;;;;5029691;28;20652;-85
2023/01/31 01:31:17;;;;;;;6.47;3.73;;;;;;;;;;5031140;28;20185;-85
2023/01/31 01:33:44;;;;;;;13.77;3.67;;;;;;;;;;5025373;28;20252;-85
2023/01/31 01:36:16;;;;;;;8.53;3.90;;;;;;;;;;5041612;28;20204;-86
2023/01/31 01:38:45;;;;;;;9.03;3.10;;;;;;;;;;5046847;28;20180;-85
2023/01/31 01:41:12;;;;;;;8.60;3.03;;;;;;;;;;5035360;28;20184;-86
2023/01/31 01:43:40;;;;;;;13.40;3.70;;;;;;;;;;5033072;28;20203;-85
2023/01/31 01:46:06;;;;;;;8.27;3.50;;;;;;;;;;5027639;28;20174;-84
2023/01/31 01:48:32;;;;;;;6.87;2.90;;;;;;;;;;5041649;28;20201;-85
2023/01/31 01:50:59;;;;;;;9.17;3.30;;;;;;;;;;5031618;28;20186;-85
2023/01/31 01:53:27;;;;;;;7.43;3.27;;;;;;;;;;5038533;28;21469;-86
2023/01/31 01:55:55;;;;;;;8.70;3.23;;;;;;;;;;5039472;28;20305;-88
2023/01/31 01:58:31;;;;;;;8.60;3.23;;;;;;;;;;5044351;28;20185;-86
2023/01/31 02:00:57;;;;;;;7.90;2.83;;;;;;;;;;5044079;28;20186;-84
2023/01/31 02:03:23;;;;;;;10.23;2.97;;;;;;;;;;5033842;28;20194;-85
2023/01/31 02:05:52;;;;;;;6.33;2.60;;;;;;;;;;5027070;28;20185;-85
2023/01/31 02:08:19;;;;;;;7.20;3.00;;;;;;;;;;5047570;28;20279;-85
2023/01/31 02:11:03;;;;;;;8.03;3.33;;;;;;;;;;5032258;28;20174;-84
2023/01/31 02:13:30;;;;;;;9.97;3.23;;;;;;;;;;5038125;28;20233;-86
2023/01/31 02:15:56;;;;;;;7.33;2.97;;;;;;;;;;5033336;28;20251;-85
2023/01/31 02:18:23;;;;;;;10.67;3.33;;;;;;;;;;5030212;28;20646;-86
2023/01/31 02:20:49;;;;;;;7.80;2.60;;;;;;;;;;5039938;28;20190;-84
2023/01/31 02:23:21;;;;;;;10.03;3.73;;;;;;;;;;5030198;28;20182;-84
2023/01/31 02:26:03;;;;;;;7.33;3.70;;;;;;;;;;5036568;28;20182;-85
2023/01/31 02:28:41;;;;;;;10.17;3.17;;;;;;;;;;5042154;28;20205;-84
2023/01/31 02:31:23;;;;;;;9.00;3.43;;;;;;;;;;5029923;28;20228;-85
2023/01/31 02:33:57;;;;;;;11.53;3.60;;;;;;;;;;5027341;28;20170;-85
2023/01/31 02:36:33;;;;;;;5.20;2.43;;;;;;;;;;5027791;28;20464;-84
2023/01/31 02:39:22;;;;;;;5.67;3.10;;;;;;;;;;5018681;28;20175;-85
2023/01/31 02:41:57;;;;;;;5.73;2.77;;;;;;;;;;5041159;28;20182;-86
2023/01/31 02:44:58;;;;;;;5.57;2.83;;;;;;;;;;5030660;28;20675;-85
2023/01/31 02:47:30;;;;;;;5.10;2.70;;;;;;;;;;5026643;28;20185;-86
2023/01/31 02:49:59;;;;;;;9.20;3.10;;;;;;;;;;5024469;28;20220;-84
2023/01/31 02:52:30;;;;;;;8.77;3.63;;;;;;;;;;5037157;28;20632;-87
2023/01/31 02:57:41;;;;;;;6.63;2.80;;;;;;;;;;5025929;28;20232;-85
2023/01/31 03:00:09;;;;;;;10.53;3.00;;;;;;;;;;5030340;28;20205;-87
2023/01/31 03:02:35;;;;;;;6.37;3.00;;;;;;;;;;5027711;28;20170;-84
2023/01/31 03:05:01;;;;;;;6.30;3.10;;;;;;;;;;5033265;28;20198;-84
2023/01/31 03:07:32;;;;;;;9.63;3.33;;;;;;;;;;5029984;28;20261;-85
2023/01/31 03:10:12;;;;;;;9.97;2.90;;;;;;;;;;5042675;28;20345;-84
2023/01/31 03:12:48;;;;;;;7.60;2.97;;;;;;;;;;5029868;28;20667;-86
2023/01/31 03:15:14;;;;;;;4.63;2.60;;;;;;;;;;5031323;28;20670;-84
2023/01/31 03:17:43;;;;;;;6.83;2.87;;;;;;;;;;5033786;28;20170;-85
2023/01/31 03:20:13;;;;;;;6.77;2.73;;;;;;;;;;5037301;28;20178;-86
2023/01/31 03:22:44;;;;;;;6.93;3.23;;;;;;;;;;5050769;28;20216;-87
2023/01/31 03:25:11;;;;;;;9.33;3.47;;;;;;;;;;5030791;28;20174;-86
2023/01/31 03:27:39;;;;;;;7.60;3.23;;;;;;;;;;5033701;28;20675;-85
2023/01/31 03:30:12;;;;;;;8.07;2.80;;;;;;;;;;5029937;28;20174;-84
2023/01/31 03:32:42;;;;;;;5.03;2.57;;;;;;;;;;5041365;28;20206;-85
2023/01/31 03:35:08;;;;;;;8.87;2.83;;;;;;;;;;5039134;28;20223;-85
2023/01/31 03:37:39;;;;;;;5.97;2.60;;;;;;;;;;5026297;28;20269;-85
2023/01/31 03:40:10;;;;;;;7.43;3.40;;;;;;;;;;5035996;28;20178;-84
2023/01/31 03:42:47;;;;;;;8.90;3.23;;;;;;;;;;5042065;28;20255;-85
2023/01/31 03:45:23;;;;;;;5.90;2.80;;;;;;;;;;5024321;28;20177;-85
2023/01/31 03:47:50;;;;;;;7.67;2.97;;;;;;;;;;5032359;28;20201;-85
2023/01/31 03:50:19;;;;;;;8.20;2.90;;;;;;;;;;5023907;28;20178;-85
2023/01/31 03:52:49;;;;;;;5.67;3.47;;;;;;;;;;5035722;28;20166;-85
2023/01/31 03:55:18;;;;;;;8.30;2.70;;;;;;;;;;5032202;28;20214;-85
2023/01/31 03:57:46;;;;;;;8.17;2.80;;;;;;;;;;5025490;28;20185;-85
2023/01/31 04:00:13;;;;;;;5.93;3.17;;;;;;;;;;5034539;28;20209;-85
2023/01/31 04:02:40;;;;;;;7.10;2.90;;;;;;;;;;5029357;28;20190;-85
2023/01/31 04:05:09;;;;;;;9.07;2.97;;;;;;;;;;5038545;28;20652;-85
2023/01/31 04:07:36;;;;;;;10.43;3.07;;;;;;;;;;5036288;28;20191;-84
2023/01/31 04:10:05;;;;;;;6.83;2.90;;;;;;;;;;5037587;28;20217;-85
2023/01/31 04:12:34;;;;;;;7.83;3.30;;;;;;;;;;5021771;28;20234;-84
2023/01/31 04:15:00;;;;;;;7.73;3.20;;;;;;;;;;5032624;28;20193;-84
2023/01/31 04:17:26;;;;;;;8.07;4.67;;;;;;;;;;5035422;28;20559;-84
2023/01/31 04:19:52;;;;;;;7.60;3.10;;;;;;;;;;5025062;28;20807;-84
2023/01/31 04:22:18;;;;;;;11.93;3.67;;;;;;;;;;5032278;28;20606;-84
2023/01/31 04:24:44;;;;;;;5.27;2.50;;;;;;;;;;5033361;28;20166;-84
2023/01/31 04:27:10;;;;;;;9.60;3.07;;;;;;;;;;5049644;28;20162;-85
2023/01/31 04:29:36;;;;;;;7.93;3.57;;;;;;;;;;5023547;28;20314;-84
2023/01/31 04:32:03;;;;;;;8.43;3.57;;;;;;;;;;5048907;28;20249;-85
2023/01/31 04:34:29;;;;;;;6.40;3.20;;;;;;;;;;5023521;28;20238;-85
2023/01/31 04:36:55;;;;;;;8.97;3.50;;;;;;;;;;5033786;28;20189;-85
2023/01/31 04:39:21;;;;;;;7.97;3.43;;;;;;;;;;5023214;28;20199;-84
2023/01/31 04:41:47;;;;;;;8.30;3.63;;;;;;;;;;5028296;28;20229;-86
2023/01/31 04:44:13;;;;;;;8.10;3.40;;;;;;;;;;5017603;28;20187;-85
2023/01/31 04:46:39;;;;;;;6.70;3.30;;;;;;;;;;5030494;28;20201;-86
2023/01/31 04:49:05;;;;;;;6.43;3.03;;;;;;;;;;5023514;28;20271;-85
2023/01/31 04:51:31;;;;;;;8.50;3.00;;;;;;;;;;5034129;28;20178;-85
2023/01/31 04:53:57;;;;;;;10.70;3.13;;;;;;;;;;5030595;28;20680;-84
2023/01/31 04:56:24;;;;;;;9.17;3.70;;;;;;;;;;5034449;28;20216;-85
2023/01/31 04:58:50;;;;;;;4.37;2.57;;;;;;;;;;5018623;28;20182;-86
2023/01/31 05:01:16;;;;;;;11.33;4.13;;;;;;;;;;5033408;28;20186;-85
2023/01/31 05:03:42;;;;;;;5.50;3.40;;;;;;;;;;5030997;28;20166;-85
2023/01/31 05:06:08;;;;;;;9.50;4.07;;;;;;;;;;5028392;28;20189;-84
2023/01/31 05:08:34;;;;;;;6.60;2.90;;;;;;;;;;5038835;28;20202;-85
2023/01/31 05:11:01;;;;;;;11.17;3.97;;;;;;;;;;5035001;28;20166;-85
2023/01/31 05:13:28;;;;;;;8.17;3.33;;;;;;;;;;5030077;28;20644;-85
2023/01/31 05:15:56;;;;;;;7.43;4.43;;;;;;;;;;5050989;28;20306;-86
2023/01/31 05:18:23;;;;;;;8.83;3.70;;;;;;;;;;5036791;28;20176;-84
2023/01/31 05:20:49;;;;;;;7.87;3.40;;;;;;;;;;5036212;28;20190;-85
2023/01/31 05:23:16;;;;;;;8.53;4.33;;;;;;;;;;5038731;28;20692;-85
2023/01/31 05:25:42;;;;;;;6.10;3.47;;;;;;;;;;5036542;28;20564;-84
2023/01/31 05:28:08;;;;;;;5.30;3.50;;;;;;;;;;5033634;28;20194;-85
2023/01/31 05:30:35;;;;;;;8.03;4.57;;;;;;;;;;5036237;28;20178;-84
2023/01/31 05:33:01;;;;;;;8.37;4.67;;;;;;;;;;5027021;28;20265;-85
2023/01/31 05:35:27;;;;;;;5.63;2.83;;;;;;;;;;5043370;28;20181;-84
2023/01/31 05:37:54;;;;;;;5.77;3.47;;;;;;;;;;5035043;28;20189;-84
2023/01/31 05:40:20;;;;;;;6.90;3.40;;;;;;;;;;5040809;28;20237;-87
2023/01/31 05:42:50;;;;;;;5.53;3.47;;;;;;;;;;5038601;28;20174;-84
2023/01/31 05:45:16;;;;;;;11.33;4.53;;;;;;;;;;5030847;28;20216;-84
2023/01/31 05:47:42;;;;;;;6.87;4.30;;;;;;;;;;5036212;28;20182;-85
2023/01/31 05:50:08;;;;;;;9.90;4.33;;;;;;;;;;5034393;28;20182;-84
2023/01/31 05:52:34;;;;;;;7.83;4.20;;;;;;;;;;5038445;28;20654;-84
2023/01/31 05:55:00;;;;;;;6.93;3.57;;;;;;;;;;5048290;28;20221;-84
2023/01/31 05:57:27;;;;;;;8.27;4.37;;;;;;;;;;5024975;28;20556;-83
2023/01/31 05:59:53;;;;;;;12.73;5.40;;;;;;;;;;5033145;28;20188;-83
2023/01/31 06:02:19;;;;;;;8.60;4.37;;;;;;;;;;5037084;28;20272;-84
2023/01/31 06:04:46;;;;;;;8.30;4.20;;;;;;;;;;5036526;28;20783;-83
2023/01/31 06:07:12;;;;;;;11.53;4.70;;;;;;;;;;5036897;28;20200;-84
2023/01/31 06:09:39;;;;;;;11.00;5.03;;;;;;;;;;5028579;28;20198;-85
2023/01/31 06:12:05;;;;;;;7.27;3.50;;;;;;;;;;5036405;28;20181;-84
2023/01/31 06:14:32;;;;;;;10.50;4.27;;;;;;;;;;5031865;28;20174;-84
2023/01/31 06:16:58;;;;;;;12.80;5.37;;;;;;;;;;5034277;28;20178;-85
2023/01/31 06:19:24;;;;;;;12.50;5.47;;;;;;;;;;5034958;28;20186;-84
2023/01/31 06:21:51;;;;;;;5.43;3.67;;;;;;;;;;5028189;28;20237;-84
2023/01/31 06:24:17;;;;;;;9.87;4.70;;;;;;;;;;5033166;28;20173;-84
2023/01/31 06:26:43;;;;;;;11.30;4.73;;;;;;;;;;5028008;28;20861;-87
2023/01/31 06:29:09;;;;;;;8.70;4.70;;;;;;;;;;5021658;28;20636;-85
2023/01/31 06:31:35;;;;;;;10.43;4.93;;;;;;;;;;5032304;28;20170;-84
2023/01/31 06:34:02;;;;;;;11.90;4.60;;;;;;;;;;5023580;28;20174;-84
2023/01/31 06:36:28;;;;;;;9.23;4.73;;;;;;;;;;5021514;28;20243;-84
2023/01/31 06:38:54;;;;;;;6.70;4.10;;;;;;;;;;5020620;28;20738;-86
2023/01/31 06:41:20;;;;;;;12.50;5.07;;;;;;;;;;5031019;28;20182;-83
2023/01/31 06:43:46;;;;;;;8.77;5.20;;;;;;;;;;5025765;28;20197;-84
2023/01/31 06:46:12;;;;;;;8.37;4.07;;;;;;;;;;5035557;28;20180;-84
2023/01/31 06:48:38;;;;;;;8.63;4.93;;;;;;;;;;5039378;28;20197;-80
2023/01/31 06:51:05;;;;;;;11.07;4.90;;;;;;;;;;5035973;28;20181;-83
2023/01/31 06:53:31;;;;;;;10.17;4.47;;;;;;;;;;5032762;28;20206;-84
2023/01/31 06:55:57;;;;;;;7.87;4.40;;;;;;;;;;5028943;28;20183;-84
2023/01/31 06:58:23;;;;;;;10.00;5.30;;;;;;;;;;5033555;28;20277;-83
2023/01/31 07:00:49;;;;;;;10.20;5.40;;;;;;;;;;5033625;28;20280;-84
2023/01/31 07:03:15;;;;;;;10.43;4.47;;;;;;;;;;5032499;28;20185;-84
2023/01/31 07:05:41;;;;;;;8.90;5.20;;;;;;;;;;5031510;28;20945;-84
2023/01/31 07:08:07;;;;;;;8.97;5.73;;;;;;;;;;5040086;28;20327;-81
2023/01/31 07:10:33;;;;;;;9.73;5.03;;;;;;;;;;5024008;28;20175;-85
2023/01/31 07:13:00;;;;;;;9.57;4.30;;;;;;;;;;5047853;28;20610;-84
2023/01/31 07:15:26;;;;;;;9.23;5.30;;;;;;;;;;5028878;28;20186;-86
2023/01/31 07:17:57;;;;;;;10.90;5.40;;;;;;;;;;5037986;28;20177;-84
2023/01/31 07:20:23;;;;;;;12.53;5.50;;;;;;;;;;5025868;28;20689;-89
2023/01/31 07:22:58;;;;;;;12.83;5.43;;;;;;;;;;5033371;28;20193;-89
2023/01/31 07:25:25;;;;;;;11.80;5.33;;;;;;;;;;5035152;28;20216;-90
2023/01/31 07:27:51;;;;;;;9.53;5.43;;;;;;;;;;5030132;28;20242;-89
2023/01/31 07:30:17;;;;;;;12.00;5.97;;;;;;;;;;5033347;28;20192;-88
2023/01/31 07:32:43;;;;;;;11.37;6.27;;;;;;;;;;5022781;28;20189;-89
2023/01/31 07:35:09;;;;;;;11.00;5.50;;;;;;;;;;5034236;28;20177;-89
2023/01/31 07:37:36;;;;;;;8.57;4.70;;;;;;;;;;5032189;28;20178;-90
2023/01/31 07:40:03;;;;;;;10.73;5.47;;;;;;;;;;5032023;28;20182;-84
2023/01/31 07:42:30;;;;;;;13.50;5.57;;;;;;;;;;5030589;28;20263;-85
2023/01/31 07:44:56;;;;;;;7.47;4.83;;;;;;;;;;5036828;28;20212;-84
2023/01/31 07:47:22;;;;;;;13.53;5.93;;;;;;;;;;5025822;28;20180;-84
2023/01/31 07:49:49;;;;;;;9.03;4.60;;;;;;;;;;5033097;28;20735;-85
2023/01/31 07:52:15;;;;;;;11.67;5.03;;;;;;;;;;5043995;28;20652;-84
2023/01/31 07:54:41;;;;;;;10.17;5.13;;;;;;;;;;5022625;28;20308;-84
2023/01/31 07:57:07;;;;;;;12.20;4.77;;;;;;;;;;5039360;28;20174;-84
2023/01/31 07:59:33;;;;;;;12.53;5.70;;;;;;;;;;5025174;28;20247;-84
2023/01/31 08:04:44;;;;;;;12.53;4.97;;;;;;;;;;5028923;28;20200;-83
2023/01/31 08:07:10;;;;;;;7.20;4.80;;;;;;;;;;5029340;28;20212;-84
2023/01/31 08:09:37;;;;;;;10.57;4.93;;;;;;;;;;5032452;28;20198;-85
2023/01/31 08:12:04;;;;;;;11.50;4.60;;;;;;;;;;5042082;28;20174;-84
2023/01/31 08:14:30;;;;;;;16.17;6.57;;;;;;;;;;5039170;28;20505;-83
2023/01/31 08:16:56;;;;;;;8.20;4.87;;;;;;;;;;5019570;28;20248;-84
2023/01/31 08:19:22;;;;;;;16.30;5.30;;;;;;;;;;5031805;28;20269;-86
2023/01/31 08:21:48;;;;;;;13.80;5.27;;;;;;;;;;5025852;28;20220;-84
2023/01/31 08:24:14;;;;;;;11.37;4.57;;;;;;;;;;5031128;28;20273;-84
2023/01/31 08:26:41;;;;;;;10.03;4.67;;;;;;;;;;5025897;28;20216;-84
2023/01/31 08:29:07;;;;;;;8.53;4.10;;;;;;;;;;5020856;28;20208;-84
2023/01/31 08:31:33;;;;;;;15.67;4.80;;;;;;;;;;5030017;28;20226;-83
2023/01/31 08:33:59;;;;;;;7.87;4.73;;;;;;;;;;5028998;28;20737;-83
2023/01/31 08:36:27;;;;;;;10.10;4.93;;;;;;;;;;5022818;28;20185;-84
2023/01/31 08:38:54;;;;;;;9.27;4.70;;;;;;;;;;5027910;28;20635;-85
2023/01/31 08:41:21;;;;;;;10.20;4.23;;;;;;;;;;5026348;28;20178;-84
2023/01/31 08:43:47;;;;;;;12.63;5.00;;;;;;;;;;5023955;28;20251;-84
2023/01/31 08:46:13;;;;;;;10.50;4.77;;;;;;;;;;5039329;28;20535;-84
2023/01/31 08:48:41;;;;;;;8.70;4.53;;;;;;;;;;5022388;28;20653;-85
2023/01/31 08:51:08;;;;;;;6.70;4.50;;;;;;;;;;5019892;28;20206;-84
2023/01/31 08:53:37;;;;;;;8.87;4.83;;;;;;;;;;5022110;28;20692;-83
2023/01/31 08:56:04;;;;;;;11.67;4.73;;;;;;;;;;5021568;28;20300;-85
2023/01/31 08:58:34;;;;;;;12.13;4.53;;;;;;;;;;5037917;28;20190;-84
2023/01/31 09:01:01;;;;;;;8.47;4.57;;;;;;;;;;5038456;28;20181;-83
2023/01/31 09:03:27;;;;;;;9.13;4.70;;;;;;;;;;5036120;28;20280;-84
2023/01/31 09:05:53;;;;;;;11.63;3.80;;;;;;;;;;5033073;28;20251;-84
2023/01/31 09:08:19;;;;;;;7.67;3.77;;;;;;;;;;5026347;28;20202;-84
2023/01/31 09:10:56;;;;;;;10.20;3.90;;;;;;;;;;5026770;28;20178;-85
2023/01/31 09:13:22;;;;;;;8.03;3.70;;;;;;;;;;5040418;28;20173;-85
2023/01/31 09:16:02;;;;;;;16.60;4.10;;;;;;;;;;5041215;28;20185;-85
2023/01/31 09:18:28;;;;;;;9.83;3.97;;;;;;;;;;5043105;28;20197;-83
2023/01/31 09:20:54;;;;;;;9.93;4.10;;;;;;;;;;5028929;28;20189;-84
2023/01/31 09:23:21;;;;;;;6.27;3.17;;;;;;;;;;5047227;28;20173;-84
2023/01/31 09:25:54;;;;;;;6.83;3.60;;;;;;;;;;5028005;28;20905;-85
2023/01/31 09:28:20;;;;;;;12.73;3.47;;;;;;;;;;5040363;28;20289;-80
2023/01/31 09:30:47;;;;;;;11.63;4.03;;;;;;;;;;5029620;28;20182;-82
2023/01/31 09:33:13;;;;;;;11.13;4.17;;;;;;;;;;5028703;28;20217;-81
2023/01/31 09:35:39;;;;;;;6.00;3.60;;;;;;;;;;5038048;28;20179;-82
2023/01/31 09:38:05;;;;;;;7.40;4.23;;;;;;;;;;5045706;28;20216;-81
2023/01/31 09:40:33;;;;;;;6.07;3.27;;;;;;;;;;5030454;28;20182;-83
2023/01/31 09:43:01;;;;;;;6.67;3.10;;;;;;;;;;5030221;28;20557;-82
2023/01/31 09:45:32;;;;;;;15.00;3.80;;;;;;;;;;5031327;28;20185;-80
2023/01/31 09:47:59;;;;;;;5.50;3.40;;;;;;;;;;5041338;28;20217;-80
2023/01/31 09:50:35;;;;;;;8.70;3.80;;;;;;;;;;5025107;28;20697;-84
2023/01/31 09:53:01;;;;;;;12.47;5.03;;;;;;;;;;5030541;28;20609;-85
2023/01/31 09:55:54;;;;;;;8.70;3.63;;;;;;;;;;5024953;28;20230;-85
2023/01/31 09:58:33;;;;;;;10.63;3.40;;;;;;;;;;5043928;28;20216;-83
2023/01/31 10:00:59;;;;;;;6.10;3.37;;;;;;;;;;5047379;28;20882;-82
2023/01/31 10:03:31;;;;;;;8.10;3.53;;;;;;;;;;5044580;28;20185;-84
2023/01/31 10:06:08;;;;;;;9.83;4.33;;;;;;;;;;5025301;28;20657;-84
2023/01/31 10:08:34;;;;;;;9.90;4.17;;;;;;;;;;5044236;28;20209;-82
2023/01/31 10:11:02;;;;;;;9.17;3.73;;;;;;;;;;5028981;28;20183;-83
2023/01/31 10:13:33;;;;;;;7.90;3.27;;;;;;;;;;5025430;28;20179;-83
2023/01/31 10:15:59;;;;;;;11.77;4.43;;;;;;;;;;5038010;28;20181;-85
2023/01/31 10:18:30;;;;;;;6.47;3.80;;;;;;;;;;5025921;28;20186;-85
2023/01/31 10:20:59;;;;;;;7.80;3.27;;;;;;;;;;5036512;28;20185;-83
2023/01/31 10:23:44;;;;;;;5.53;3.87;;;;;;;;;;5044447;28;20275;-84
2023/01/31 10:26:12;;;;;;;6.63;3.80;;;;;;;;;;5053310;28;20197;-84
2023/01/31 10:28:42;;;;;;;7.57;3.93;;;;;;;;;;5053244;28;20198;-85
2023/01/31 10:31:15;;;;;;;12.80;4.00;;;;;;;;;;5028516;28;20233;-84
2023/01/31 10:33:51;;;;;;;10.00;3.63;;;;;;;;;;5031947;28;20255;-83
2023/01/31 10:36:23;;;;;;;7.67;3.43;;;;;;;;;;5030055;28;20197;-83
2023/01/31 10:39:00;;;;;;;9.00;3.27;;;;;;;;;;5025977;28;20245;-82
2023/01/31 10:41:34;;;;;;;6.43;3.73;;;;;;;;;;5042629;28;20181;-83
2023/01/31 10:44:03;;;;;;;7.33;3.47;;;;;;;;;;5028493;28;20189;-85
2023/01/31 10:46:29;;;;;;;7.43;3.20;;;;;;;;;;5033699;28;20638;-83
2023/01/31 10:48:55;;;;;;;8.97;3.73;;;;;;;;;;5027532;28;20259;-83
2023/01/31 10:51:45;;;;;;;8.97;3.63;;;;;;;;;;5021589;28;20186;-84
2023/01/31 10:54:23;;;;;;;9.67;3.30;;;;;;;;;;5034372;28;20222;-84
2023/01/31 10:56:49;;;;;;;6.40;4.20;;;;;;;;;;5045768;28;20170;-82
2023/01/31 10:59:24;;;;;;;9.83;3.80;;;;;;;;;;5044094;28;20672;-84
2023/01/31 11:01:51;;;;;;;6.07;3.33;;;;;;;;;;5025761;28;20178;-84
2023/01/31 11:04:29;;;;;;;7.33;3.67;;;;;;;;;;5029166;28;20229;-84
2023/01/31 11:06:56;;;;;;;9.70;3.70;;;;;;;;;;5018254;28;20186;-83
2023/01/31 11:09:23;;;;;;;8.10;4.17;;;;;;;;;;5024188;28;20216;-87
2023/01/31 11:11:54;;;;;;;8.23;4.07;;;;;;;;;;5041837;28;20232;-85
2023/01/31 11:14:20;;;;;;;5.70;3.80;;;;;;;;;;5042733;28;20182;-86
2023/01/31 11:16:47;;;;;;;6.87;4.03;;;;;;;;;;5043754;28;20560;-88
2023/01/31 11:19:23;;;;;;;10.07;4.23;;;;;;;;;;5032693;28;20620;-84
2023/01/31 11:21:51;;;;;;;8.27;4.30;;;;;;;;;;5037177;28;20185;-84
2023/01/31 11:24:21;;;;;;;6.03;3.23;;;;;;;;;;5022582;28;20182;-84
2023/01/31 11:26:54;;;;;;;5.00;3.80;;;;;;;;;;5037554;28;20641;-84
2023/01/31 11:29:24;;;;;;;12.57;4.07;;;;;;;;;;5020662;28;20208;-84
2023/01/31 11:31:50;;;;;;;7.23;3.70;;;;;;;;;;5043194;28;20171;-83
2023/01/31 11:34:19;;;;;;;8.47;4.30;;;;;;;;;;5041272;28;20189;-85
2023/01/31 11:36:46;;;;;;;9.53;3.97;;;;;;;;;;5033061;28;20245;-85
2023/01/31 11:39:30;;;;;;;6.40;3.97;;;;;;;;;;5026501;28;20193;-85
2023/01/31 11:41:57;;;;;;;13.13;4.40;;;;;;;;;;5027220;28;20192;-84
2023/01/31 11:44:23;;;;;;;9.13;3.83;;;;;;;;;;5026006;28;20182;-84
2023/01/31 11:46:58;;;;;;;6.23;4.07;;;;;;;;;;5040743;28;20190;-84
2023/01/31 11:49:35;;;;;;;10.13;4.33;;;;;;;;;;5029784;28;20644;-84
2023/01/31 11:52:16;;;;;;;8.10;3.77;;;;;;;;;;5043568;28;20184;-85
2023/01/31 11:54:46;;;;;;;7.17;4.57;;;;;;;;;;5042597;28;20317;-84
2023/01/31 11:57:22;;;;;;;11.73;4.90;;;;;;;;;;5022945;28;20178;-83
2023/01/31 11:59:49;;;;;;;7.73;4.27;;;;;;;;;;5037574;28;20189;-84
2023/01/31 12:02:24;;;;;;;9.53;4.43;;;;;;;;;;5027131;28;20204;-84
2023/01/31 12:04:50;;;;;;;11.73;4.90;;;;;;;;;;5044510;28;20267;-85
2023/01/31 12:07:23;;;;;;;8.90;4.83;;;;;;;;;;5033201;28;20202;-85
2023/01/31 12:09:50;;;;;;;9.40;5.17;;;;;;;;;;5047556;28;20781;-84
2023/01/31 12:12:34;;;;;;;10.70;5.40;;;;;;;;;;5021276;28;20177;-84
2023/01/31 12:15:02;;;;;;;12.43;5.27;;;;;;;;;;5034114;28;20264;-83
2023/01/31 12:17:30;;;;;;;5.77;4.37;;;;;;;;;;5040223;28;20191;-83
2023/01/31 12:20:02;;;;;;;7.77;4.83;;;;;;;;;;5043617;28;20250;-85
2023/01/31 12:22:35;;;;;;;10.37;5.50;;;;;;;;;;5035958;28;20178;-85
2023/01/31 12:25:01;;;;;;;14.97;4.60;;;;;;;;;;5034231;28;20674;-84
2023/01/31 12:27:33;;;;;;;6.63;5.07;;;;;;;;;;5040613;28;20182;-84
2023/01/31 12:30:18;;;;;;;9.93;5.10;;;;;;;;;;5038886;28;20206;-85
2023/01/31 12:32:44;;;;;;;14.67;5.53;;;;;;;;;;5039342;28;20202;-84
2023/01/31 12:35:30;;;;;;;12.27;5.87;;;;;;;;;;5026087;28;20228;-85
2023/01/31 12:38:07;;;;;;;8.40;4.87;;;;;;;;;;5001681;28;20193;-85
2023/01/31 12:41:02;;;;;;;9.93;5.13;;;;;;;;;;5024884;28;20177;-84
2023/01/31 12:43:54;;;;;;;7.90;5.07;;;;;;;;;;4975213;28;20566;-84
2023/01/31 12:46:24;;;;;;;6.10;5.37;;;;;;;;;;5015511;28;20202;-85
2023/01/31 12:49:09;;;;;;;10.37;5.70;;;;;;;;;;5023919;28;20206;-85
2023/01/31 12:51:45;;;;;;;8.03;6.00;;;;;;;;;;5039182;28;20649;-85
2023/01/31 12:54:10;;;;;;;11.30;5.83;;;;;;;;;;5040297;28;20218;-85
2023/01/31 12:56:57;;;;;;;10.63;5.87;;;;;;;;;;5024948;28;20189;-84
2023/01/31 12:59:46;;;;;;;9.37;6.47;;;;;;;;;;5013069;28;20197;-84
2023/01/31 13:02:45;;;;;;;7.23;5.10;;;;;;;;;;5033889;28;20197;-85
2023/01/31 13:05:11;;;;;;;7.80;5.20;;;;;;;;;;5005141;28;20214;-85
2023/01/31 13:07:41;;;;;;;8.90;5.47;;;;;;;;;;5025050;28;20162;-88
2023/01/31 13:10:17;;;;;;;10.03;6.00;;;;;;;;;;5027411;28;20799;-86
2023/01/31 13:12:44;;;;;;;9.17;5.40;;;;;;;;;;5026605;28;20281;-89
2023/01/31 13:15:32;;;;;;;7.50;5.40;;;;;;;;;;5035260;28;20174;-91
2023/01/31 13:18:01;;;;;;;10.07;6.20;;;;;;;;;;5022089;28;20673;-89
2023/01/31 13:20:31;;;;;;;13.20;6.50;;;;;;;;;;5043933;28;20169;-89
2023/01/31 13:22:58;;;;;;;12.87;6.20;;;;;;;;;;5042431;28;20213;-88
2023/01/31 13:25:27;;;;;;;14.30;6.73;;;;;;;;;;5041676;28;20727;-88
2023/01/31 13:27:58;;;;;;;11.53;6.67;;;;;;;;;;5026036;28;20178;-89
2023/01/31 13:30:34;;;;;;;13.67;7.13;;;;;;;;;;5045727;28;20182;-88
2023/01/31 13:33:03;;;;;;;10.23;6.70;;;;;;;;;;5027367;28;20209;-89
2023/01/31 13:35:34;;;;;;;8.97;6.67;;;;;;;;;;5029499;28;20258;-85
2023/01/31 13:38:00;;;;;;;10.37;7.33;;;;;;;;;;5022739;28;20179;-85
2023/01/31 13:40:32;;;;;;;12.67;8.10;;;;;;;;;;5032840;28;20178;-88
2023/01/31 13:43:01;;;;;;;11.07;7.80;;;;;;;;;;5027858;28;20178;-85
2023/01/31 13:45:37;;;;;;;13.17;8.60;;;;;;;;;;5032306;28;20272;-87
2023/01/31 13:48:10;;;;;;;10.53;8.50;;;;;;;;;;5030053;28;20182;-85
2023/01/31 13:50:41;;;;;;;15.60;9.43;;;;;;;;;;5043910;28;20202;-88
2023/01/31 13:53:15;;;;;;;12.43;10.27;;;;;;;;;;5047860;28;20205;-89
2023/01/31 13:55:43;;;;;;;19.80;9.23;;;;;;;;;;5046622;28;20249;-87
2023/01/31 13:58:15;;;;;;;9.93;8.63;;;;;;;;;;5047527;28;20316;-86
2023/01/31 14:00:45;;;;;;;13.33;8.73;;;;;;;;;;5041749;28;20221;-86
2023/01/31 14:03:12;;;;;;;14.60;9.13;;;;;;;;;;5028496;28;20267;-85
2023/01/31 14:05:47;;;;;;;15.87;8.83;;;;;;;;;;5022819;28;20186;-87
2023/01/31 14:08:32;;;;;;;14.10;8.90;;;;;;;;;;5027109;28;20207;-88
2023/01/31 14:10:59;;;;;;;13.90;8.70;;;;;;;;;;5029334;28;20809;-87
2023/01/31 14:13:35;;;;;;;14.27;9.17;;;;;;;;;;5053795;28;20182;-87
2023/01/31 14:16:01;;;;;;;11.87;8.33;;;;;;;;;;5047526;28;20283;-85
2023/01/31 14:18:39;;;;;;;14.23;8.50;;;;;;;;;;5044807;28;20224;-89
2023/01/31 14:21:24;;;;;;;14.57;8.87;;;;;;;;;;5029422;28;20209;-84
2023/01/31 14:23:50;;;;;;;10.50;8.50;;;;;;;;;;5025051;28;20312;-85
2023/01/31 14:26:31;;;;;;;13.43;8.43;;;;;;;;;;5027805;28;20185;-87
2023/01/31 14:28:57;;;;;;;13.90;8.47;;;;;;;;;;5048213;28;20668;-88
2023/01/31 14:31:24;;;;;;;9.77;6.73;;;;;;;;;;5026381;28;20185;-80
2023/01/31 14:33:52;;;;;;;14.63;7.73;;;;;;;;;;5025450;28;20280;-80
2023/01/31 14:36:19;;;;;;;10.80;7.60;;;;;;;;;;5042962;28;20185;-81
2023/01/31 14:38:57;;;;;;;9.63;7.53;;;;;;;;;;5028113;28;20183;-81
2023/01/31 14:41:43;;;;;;;13.23;7.73;;;;;;;;;;5028541;28;20181;-87
2023/01/31 14:44:20;;;;;;;12.17;8.03;;;;;;;;;;5044091;28;20211;-87
2023/01/31 14:46:49;;;;;;;13.00;7.77;;;;;;;;;;5046158;28;20198;-86
2023/01/31 14:49:21;;;;;;;12.80;8.67;;;;;;;;;;5030987;28;20590;-87
2023/01/31 14:51:53;;;;;;;11.67;8.33;;;;;;;;;;5028510;28;20613;-87
2023/01/31 14:54:26;;;;;;;9.40;7.83;;;;;;;;;;5022736;28;20217;-87
2023/01/31 14:57:11;;;;;;;10.23;7.30;;;;;;;;;;5025985;28;20765;-86
2023/01/31 14:59:42;;;;;;;10.00;8.37;;;;;;;;;;5024344;28;20184;-87